createdAt,value
2018-12-30T00:01:16.887Z,17.00
2018-12-30T00:03:46.319Z,13.97
2018-12-30T00:06:16.354Z,14.50
2018-12-30T00:08:46.267Z,15.00
2018-12-30T00:11:15.778Z,13.97
2018-12-30T00:13:45.213Z,13.53
2018-12-30T00:16:14.678Z,17.40
2018-12-30T00:18:44.651Z,17.97
2018-12-30T00:21:14.600Z,19.07
2018-12-30T00:23:44.077Z,20.40
2018-12-30T00:26:13.513Z,20.23
2018-12-30T00:28:42.953Z,18.10
2018-12-30T00:31:12.427Z,18.83
2018-12-30T00:33:41.864Z,20.07
2018-12-30T00:36:11.335Z,18.07
2018-12-30T00:38:40.827Z,17.50
2018-12-30T00:41:10.313Z,16.13
2018-12-30T00:43:39.781Z,15.40
2018-12-30T00:46:09.324Z,21.00
2018-12-30T00:48:38.782Z,19.83
2018-12-30T00:51:08.222Z,19.60
2018-12-30T00:53:37.671Z,18.57
2018-12-30T00:56:07.499Z,21.97
2018-12-30T00:58:37.457Z,23.07
2018-12-30T01:01:06.998Z,26.73
2018-12-30T01:03:36.553Z,25.73
2018-12-30T01:06:05.989Z,26.83
2018-12-30T01:08:35.469Z,27.37
2018-12-30T01:11:05.473Z,29.27
2018-12-30T01:13:34.923Z,29.17
2018-12-30T01:16:04.411Z,29.17
2018-12-30T01:18:33.867Z,29.17
2018-12-30T01:21:03.302Z,29.60
2018-12-30T01:23:32.803Z,31.67
2018-12-30T01:26:21.314Z,29.57
2018-12-30T01:28:50.797Z,31.70
2018-12-30T01:31:20.228Z,30.33
2018-12-30T01:33:50.077Z,29.97
2018-12-30T01:36:19.590Z,25.97
2018-12-30T01:38:49.044Z,25.77
2018-12-30T01:41:18.480Z,24.27
2018-12-30T01:43:48.063Z,22.33
2018-12-30T01:46:17.762Z,20.60
2018-12-30T01:48:47.181Z,18.33
2018-12-30T01:51:16.700Z,20.30
2018-12-30T01:53:46.140Z,19.13
2018-12-30T01:56:15.592Z,20.70
2018-12-30T01:58:45.599Z,20.03
2018-12-30T02:01:15.072Z,18.53
2018-12-30T02:03:44.481Z,20.03
2018-12-30T02:06:13.963Z,19.57
2018-12-30T02:08:43.359Z,19.37
2018-12-30T02:11:13.295Z,16.43
2018-12-30T02:13:42.772Z,15.57
2018-12-30T02:16:12.164Z,13.97
2018-12-30T02:18:41.615Z,12.87
2018-12-30T02:21:11.162Z,12.20
2018-12-30T02:23:41.011Z,12.80
2018-12-30T02:26:10.410Z,13.63
2018-12-30T02:28:39.875Z,12.17
2018-12-30T02:31:09.335Z,13.13
2018-12-30T02:33:38.736Z,9.73
2018-12-30T02:36:08.205Z,10.83
2018-12-30T02:38:37.681Z,14.20
2018-12-30T02:41:07.166Z,13.57
2018-12-30T02:43:36.629Z,16.97
2018-12-30T02:46:06.032Z,9.50
2018-12-30T02:48:35.458Z,6.30
2018-12-30T02:51:04.963Z,6.63
2018-12-30T02:53:34.388Z,6.13
2018-12-30T02:56:03.790Z,6.53
2018-12-30T02:58:33.243Z,6.57
2018-12-30T03:01:02.658Z,7.03
2018-12-30T03:03:32.033Z,6.70
2018-12-30T03:06:01.472Z,6.60
2018-12-30T03:08:30.918Z,6.87
2018-12-30T03:11:00.754Z,7.00
2018-12-30T03:13:30.223Z,7.00
2018-12-30T03:15:59.618Z,8.50
2018-12-30T03:18:29.061Z,8.20
2018-12-30T03:20:58.526Z,7.43
2018-12-30T03:23:27.873Z,7.27
2018-12-30T03:25:57.235Z,7.17
2018-12-30T03:28:26.735Z,6.80
2018-12-30T03:30:56.118Z,7.47
2018-12-30T03:33:25.529Z,8.60
2018-12-30T03:35:54.946Z,11.23
2018-12-30T03:38:24.296Z,6.73
2018-12-30T03:40:53.691Z,40.57
2018-12-30T03:43:23.170Z,8.20
2018-12-30T03:45:52.612Z,9.37
2018-12-30T03:48:22.010Z,7.90
2018-12-30T03:50:51.479Z,7.80
2018-12-30T03:53:20.898Z,7.80
2018-12-30T03:55:50.351Z,8.40
2018-12-30T03:58:19.774Z,8.30
2018-12-30T04:00:49.198Z,8.30
2018-12-30T04:03:18.527Z,8.23
2018-12-30T04:05:47.974Z,8.13
2018-12-30T04:08:17.385Z,8.77
2018-12-30T04:10:46.948Z,9.00
2018-12-30T04:13:16.433Z,9.10
2018-12-30T04:15:45.824Z,7.87
2018-12-30T04:18:15.228Z,6.10
2018-12-30T04:20:44.725Z,7.13
2018-12-30T04:23:14.146Z,4.80
2018-12-30T04:25:43.600Z,5.40
2018-12-30T04:28:13.047Z,3.33
2018-12-30T04:30:42.502Z,3.30
2018-12-30T04:33:11.959Z,3.20
2018-12-30T04:35:41.488Z,3.67
2018-12-30T04:38:10.966Z,3.67
2018-12-30T04:40:40.421Z,7.83
2018-12-30T04:43:09.952Z,48.87
2018-12-30T04:45:39.419Z,18.70
2018-12-30T04:48:08.884Z,18.47
2018-12-30T04:50:39.916Z,14.20
2018-12-30T04:53:09.471Z,12.10
2018-12-30T04:55:38.892Z,12.33
2018-12-30T04:58:08.417Z,13.13
2018-12-30T05:00:37.830Z,15.00
2018-12-30T05:03:07.212Z,16.63
2018-12-30T05:05:36.706Z,23.53
2018-12-30T05:08:06.160Z,25.73
2018-12-30T05:10:35.543Z,15.37
2018-12-30T05:13:05.069Z,16.30
2018-12-30T05:15:34.623Z,15.30
2018-12-30T05:18:04.069Z,16.57
2018-12-30T05:20:33.450Z,15.60
2018-12-30T05:23:02.847Z,16.23
2018-12-30T05:25:32.189Z,15.23
2018-12-30T05:28:01.613Z,17.03
2018-12-30T05:30:31.025Z,20.10
2018-12-30T05:33:00.405Z,28.53
2018-12-30T05:35:29.825Z,24.23
2018-12-30T05:37:59.250Z,19.53
2018-12-30T05:40:28.629Z,20.07
2018-12-30T05:42:58.050Z,16.17
2018-12-30T05:45:27.530Z,13.40
2018-12-30T05:47:56.957Z,13.00
2018-12-30T05:50:26.382Z,72.30
2018-12-30T05:52:55.775Z,33.60
2018-12-30T05:55:25.141Z,27.97
2018-12-30T05:57:54.623Z,26.33
2018-12-30T06:00:23.984Z,24.20
2018-12-30T06:02:53.425Z,15.63
2018-12-30T06:05:22.926Z,16.60
2018-12-30T06:07:52.246Z,15.10
2018-12-30T06:10:21.561Z,15.20
2018-12-30T06:12:50.967Z,15.87
2018-12-30T06:15:20.364Z,10.10
2018-12-30T06:17:49.703Z,10.13
2018-12-30T06:20:19.081Z,9.77
2018-12-30T06:22:49.670Z,19.17
2018-12-30T06:25:19.322Z,18.67
2018-12-30T06:27:48.739Z,10.07
2018-12-30T06:30:18.084Z,9.93
2018-12-30T06:32:47.454Z,5.87
2018-12-30T06:35:16.886Z,4.53
2018-12-30T06:37:46.377Z,4.57
2018-12-30T06:40:15.852Z,3.97
2018-12-30T06:42:45.342Z,4.13
2018-12-30T06:45:14.796Z,4.20
2018-12-30T06:47:44.175Z,5.77
2018-12-30T06:50:13.594Z,5.30
2018-12-30T06:52:42.934Z,5.40
2018-12-30T06:55:12.315Z,4.80
2018-12-30T06:57:41.776Z,4.20
2018-12-30T07:00:11.104Z,4.57
2018-12-30T07:02:40.468Z,3.60
2018-12-30T07:05:10.060Z,2.20
2018-12-30T07:07:39.543Z,2.30
2018-12-30T07:10:08.931Z,1.60
2018-12-30T07:12:38.372Z,1.60
2018-12-30T07:15:07.805Z,3.87
2018-12-30T07:17:38.830Z,5.60
2018-12-30T07:20:08.692Z,3.90
2018-12-30T07:22:38.100Z,6.40
2018-12-30T07:25:07.523Z,4.67
2018-12-30T07:27:36.959Z,5.73
2018-12-30T07:30:06.603Z,8.40
2018-12-30T07:32:36.033Z,9.00
2018-12-30T07:35:05.558Z,8.50
2018-12-30T07:37:34.999Z,12.57
2018-12-30T07:40:04.570Z,15.43
2018-12-30T07:42:34.050Z,13.80
2018-12-30T07:45:03.499Z,16.13
2018-12-30T07:47:32.846Z,14.43
2018-12-30T07:50:02.292Z,15.03
2018-12-30T07:52:31.733Z,16.43
2018-12-30T07:55:01.126Z,20.87
2018-12-30T07:57:30.605Z,19.33
2018-12-30T07:59:59.975Z,23.63
2018-12-30T08:02:29.322Z,19.17
2018-12-30T08:04:58.813Z,15.83
2018-12-30T08:07:28.358Z,19.47
2018-12-30T08:09:57.808Z,22.97
2018-12-30T08:12:27.204Z,17.57
2018-12-30T08:14:56.541Z,13.87
2018-12-30T08:17:25.940Z,14.20
2018-12-30T08:19:55.513Z,16.63
2018-12-30T08:22:24.872Z,19.63
2018-12-30T08:24:54.311Z,15.13
2018-12-30T08:27:23.703Z,14.67
2018-12-30T08:29:53.063Z,17.03
2018-12-30T08:32:22.466Z,19.60
2018-12-30T08:34:51.885Z,19.03
2018-12-30T08:37:21.280Z,17.30
2018-12-30T08:39:50.633Z,15.50
2018-12-30T08:42:20.079Z,8.83
2018-12-30T08:44:49.554Z,4.80
2018-12-30T08:47:18.908Z,4.70
2018-12-30T08:49:48.376Z,4.93
2018-12-30T08:52:17.823Z,5.50
2018-12-30T08:54:47.193Z,8.70
2018-12-30T08:57:16.608Z,12.97
2018-12-30T08:59:46.028Z,12.97
2018-12-30T09:02:15.465Z,13.23
2018-12-30T09:04:44.873Z,17.63
2018-12-30T09:07:14.235Z,20.20
2018-12-30T09:09:43.770Z,21.30
2018-12-30T09:12:13.157Z,23.63
2018-12-30T09:14:42.537Z,30.93
2018-12-30T09:17:11.923Z,31.17
2018-12-30T09:19:41.409Z,24.27
2018-12-30T09:22:10.782Z,24.03
2018-12-30T09:24:40.221Z,24.17
2018-12-30T09:27:09.735Z,27.60
2018-12-30T09:29:39.173Z,27.20
2018-12-30T09:32:08.515Z,26.10
2018-12-30T09:34:38.011Z,24.93
2018-12-30T09:37:07.515Z,24.53
2018-12-30T09:39:36.887Z,24.37
2018-12-30T09:42:06.303Z,25.03
2018-12-30T09:44:35.653Z,43.00
2018-12-30T09:47:04.986Z,32.03
2018-12-30T09:49:34.375Z,27.87
2018-12-30T09:52:03.746Z,25.30
2018-12-30T09:54:33.087Z,25.47
2018-12-30T09:57:02.555Z,26.03
2018-12-30T09:59:31.935Z,32.67
2018-12-30T10:02:01.338Z,27.23
2018-12-30T10:04:30.771Z,30.60
2018-12-30T10:07:00.187Z,32.37
2018-12-30T10:09:29.578Z,28.50
2018-12-30T10:11:59.099Z,26.30
2018-12-30T10:14:28.535Z,26.77
2018-12-30T10:16:57.879Z,30.43
2018-12-30T10:19:27.310Z,25.30
2018-12-30T10:21:56.677Z,25.43
2018-12-30T10:24:26.112Z,24.63
2018-12-30T10:26:55.540Z,24.93
2018-12-30T10:29:25.015Z,27.60
2018-12-30T10:31:54.487Z,27.77
2018-12-30T10:34:24.013Z,23.00
2018-12-30T10:36:53.482Z,22.43
2018-12-30T10:39:22.901Z,21.00
2018-12-30T10:41:52.311Z,14.30
2018-12-30T10:44:21.711Z,13.17
2018-12-30T10:46:51.065Z,12.60
2018-12-30T10:49:20.543Z,10.77
2018-12-30T10:51:49.980Z,14.60
2018-12-30T10:54:19.340Z,12.03
2018-12-30T10:56:48.750Z,11.63
2018-12-30T10:59:18.164Z,10.10
2018-12-30T11:01:47.531Z,10.93
2018-12-30T11:04:17.011Z,10.63
2018-12-30T11:06:46.375Z,10.90
2018-12-30T11:09:15.805Z,12.53
2018-12-30T11:11:46.461Z,16.10
2018-12-30T11:14:15.833Z,12.67
2018-12-30T11:16:45.202Z,19.47
2018-12-30T11:19:16.313Z,15.00
2018-12-30T11:21:45.762Z,17.77
2018-12-30T11:24:15.181Z,15.90
2018-12-30T11:26:44.972Z,13.03
2018-12-30T11:29:14.420Z,9.97
2018-12-30T11:31:43.861Z,10.73
2018-12-30T11:34:13.274Z,10.10
2018-12-30T11:36:42.644Z,8.00
2018-12-30T11:39:12.060Z,7.17
2018-12-30T11:41:41.516Z,8.33
2018-12-30T11:44:10.853Z,7.30
2018-12-30T11:46:40.210Z,7.70
2018-12-30T11:49:09.588Z,7.93
2018-12-30T11:51:38.921Z,5.63
2018-12-30T11:54:08.276Z,5.13
2018-12-30T11:56:37.683Z,3.70
2018-12-30T11:59:07.098Z,3.53
2018-12-30T12:01:36.481Z,3.43
2018-12-30T12:04:05.929Z,3.27
2018-12-30T12:06:35.311Z,3.53
2018-12-30T12:09:07.269Z,3.60
2018-12-30T12:11:36.671Z,3.73
2018-12-30T12:14:06.187Z,3.20
2018-12-30T12:16:35.605Z,3.47
2018-12-30T12:19:05.020Z,4.17
2018-12-30T12:21:34.434Z,4.40
2018-12-30T12:24:03.833Z,4.97
2018-12-30T12:26:33.256Z,5.53
2018-12-30T12:29:02.694Z,5.23
2018-12-30T12:31:32.114Z,4.63
2018-12-30T12:34:01.534Z,2.87
2018-12-30T12:36:30.908Z,3.20
2018-12-30T12:39:00.350Z,3.03
2018-12-30T12:41:29.779Z,3.17
2018-12-30T12:43:59.197Z,2.80
2018-12-30T12:46:28.656Z,2.90
2018-12-30T12:48:58.132Z,2.77
2018-12-30T12:51:27.473Z,2.47
2018-12-30T12:53:56.791Z,2.80
2018-12-30T12:56:26.510Z,2.83
2018-12-30T12:58:55.954Z,2.73
2018-12-30T13:01:25.411Z,2.67
2018-12-30T13:03:54.895Z,2.67
2018-12-30T13:06:24.310Z,2.70
2018-12-30T13:08:53.734Z,3.00
2018-12-30T13:11:23.241Z,2.30
2018-12-30T13:13:52.597Z,4.23
2018-12-30T13:16:22.079Z,12.57
2018-12-30T13:18:51.505Z,10.00
2018-12-30T13:21:20.878Z,5.00
2018-12-30T13:23:50.246Z,7.30
2018-12-30T13:26:19.676Z,6.90
2018-12-30T13:28:49.118Z,9.87
2018-12-30T13:31:18.465Z,9.10
2018-12-30T13:33:47.979Z,5.40
2018-12-30T13:36:18.383Z,4.83
2018-12-30T13:38:47.749Z,6.30
2018-12-30T13:41:17.209Z,4.00
2018-12-30T13:43:46.611Z,3.90
2018-12-30T13:46:15.943Z,3.87
2018-12-30T13:48:45.353Z,4.00
2018-12-30T13:51:14.705Z,4.23
2018-12-30T13:53:44.163Z,3.90
2018-12-30T13:56:13.637Z,3.87
2018-12-30T13:58:42.986Z,3.77
2018-12-30T14:01:12.342Z,3.93
2018-12-30T14:03:41.842Z,2.73
2018-12-30T14:06:11.282Z,3.03
2018-12-30T14:08:40.667Z,2.97
2018-12-30T14:11:10.139Z,2.33
2018-12-30T14:13:39.592Z,2.40
2018-12-30T14:16:08.969Z,2.77
2018-12-30T14:18:38.513Z,3.00
2018-12-30T14:21:07.835Z,2.70
2018-12-30T14:23:37.177Z,3.40
2018-12-30T14:26:06.654Z,3.77
2018-12-30T14:28:36.114Z,5.80
2018-12-30T14:31:05.565Z,7.10
2018-12-30T14:33:34.966Z,4.13
2018-12-30T14:36:04.354Z,4.00
2018-12-30T14:38:33.741Z,5.00
2018-12-30T14:41:06.179Z,3.40
2018-12-30T14:43:35.556Z,3.57
2018-12-30T14:46:04.938Z,3.57
2018-12-30T14:48:34.434Z,2.80
2018-12-30T14:51:03.851Z,3.07
2018-12-30T14:53:33.316Z,3.60
2018-12-30T14:56:02.819Z,3.40
2018-12-30T14:58:32.234Z,3.53
2018-12-30T15:01:01.604Z,2.90
2018-12-30T15:03:31.016Z,3.77
2018-12-30T15:06:00.604Z,3.70
2018-12-30T15:08:30.035Z,24.37
2018-12-30T15:10:59.536Z,26.77
2018-12-30T15:13:29.004Z,27.07
2018-12-30T15:15:58.429Z,25.27
2018-12-30T15:18:28.959Z,24.30
2018-12-30T15:20:58.381Z,21.60
2018-12-30T15:23:27.732Z,25.97
2018-12-30T15:25:57.255Z,26.77
2018-12-30T15:28:26.653Z,29.17
2018-12-30T15:30:56.016Z,31.63
2018-12-30T15:33:25.504Z,36.23
2018-12-30T15:35:54.839Z,33.90
2018-12-30T15:38:24.268Z,36.77
2018-12-30T15:40:53.666Z,36.33
2018-12-30T15:43:23.036Z,37.73
2018-12-30T15:45:52.478Z,37.57
2018-12-30T15:48:21.921Z,37.63
2018-12-30T15:50:51.292Z,38.87
2018-12-30T15:53:20.715Z,40.40
2018-12-30T15:55:50.205Z,39.50
2018-12-30T15:58:19.582Z,39.43
2018-12-30T16:00:48.956Z,42.53
2018-12-30T16:03:18.729Z,43.47
2018-12-30T16:05:48.165Z,40.60
2018-12-30T16:08:17.611Z,42.97
2018-12-30T16:10:47.116Z,43.77
2018-12-30T16:13:16.560Z,63.20
2018-12-30T16:15:45.916Z,54.70
2018-12-30T16:18:15.431Z,58.33
2018-12-30T16:20:44.863Z,78.70
2018-12-30T16:23:14.232Z,66.00
2018-12-30T16:25:43.726Z,54.03
2018-12-30T16:28:13.057Z,52.03
2018-12-30T16:30:42.419Z,50.53
2018-12-30T16:33:11.845Z,45.80
2018-12-30T16:35:41.209Z,44.10
2018-12-30T16:38:10.572Z,43.17
2018-12-30T16:40:43.150Z,45.13
2018-12-30T16:43:17.865Z,51.73
2018-12-30T16:45:47.408Z,51.27
2018-12-30T16:48:16.853Z,66.93
2018-12-30T16:50:46.264Z,50.60
2018-12-30T16:53:15.765Z,51.30
2018-12-30T16:55:45.151Z,62.40
2018-12-30T16:58:14.586Z,55.23
2018-12-30T17:00:44.075Z,53.60
2018-12-30T17:03:13.459Z,61.07
2018-12-30T17:05:42.861Z,57.60
2018-12-30T17:08:12.374Z,54.87
2018-12-30T17:10:41.754Z,54.33
2018-12-30T17:13:11.182Z,54.27
2018-12-30T17:15:40.585Z,54.00
2018-12-30T17:18:10.005Z,51.83
2018-12-30T17:20:39.439Z,52.93
2018-12-30T17:23:11.974Z,49.60
2018-12-30T17:25:43.228Z,50.43
2018-12-30T17:28:12.398Z,53.23
2018-12-30T17:30:41.815Z,58.47
2018-12-30T17:33:11.234Z,61.03
2018-12-30T17:35:40.690Z,61.07
2018-12-30T17:38:10.221Z,56.83
2018-12-30T17:40:39.654Z,58.73
2018-12-30T17:43:09.071Z,59.40
2018-12-30T17:45:38.600Z,62.20
2018-12-30T17:48:07.981Z,59.27
2018-12-30T17:50:37.413Z,59.43
2018-12-30T17:53:06.851Z,53.03
2018-12-30T17:55:36.217Z,51.90
2018-12-30T17:58:05.590Z,50.23
2018-12-30T18:00:35.030Z,55.30
2018-12-30T18:03:04.408Z,56.27
2018-12-30T18:05:33.868Z,74.07
2018-12-30T18:08:03.238Z,76.03
2018-12-30T18:10:32.629Z,83.30
2018-12-30T18:13:01.954Z,81.43
2018-12-30T18:15:31.359Z,87.23
2018-12-30T18:18:00.776Z,93.57
2018-12-30T18:20:30.178Z,93.40
2018-12-30T18:22:59.682Z,76.00
2018-12-30T18:25:29.082Z,73.97
2018-12-30T18:27:58.472Z,76.33
2018-12-30T18:30:27.846Z,76.87
2018-12-30T18:32:57.219Z,60.43
2018-12-30T18:35:26.636Z,53.40
2018-12-30T18:37:56.069Z,43.80
2018-12-30T18:40:25.401Z,36.67
2018-12-30T18:42:54.768Z,42.77
2018-12-30T18:45:24.277Z,42.57
2018-12-30T18:47:53.668Z,46.37
2018-12-30T18:50:23.014Z,46.87
2018-12-30T18:52:52.437Z,41.23
2018-12-30T18:55:21.825Z,38.10
2018-12-30T18:57:51.204Z,46.43
2018-12-30T19:00:20.691Z,34.17
2018-12-30T19:02:50.158Z,27.20
2018-12-30T19:05:19.528Z,26.33
2018-12-30T19:07:49.009Z,20.17
2018-12-30T19:10:18.414Z,21.80
2018-12-30T19:12:47.745Z,21.23
2018-12-30T19:15:17.205Z,26.03
2018-12-30T19:17:46.692Z,25.37
2018-12-30T19:20:16.045Z,23.20
2018-12-30T19:22:46.699Z,23.50
2018-12-30T19:25:16.070Z,21.13
2018-12-30T19:27:45.513Z,18.83
2018-12-30T19:30:14.991Z,17.00
2018-12-30T19:32:44.431Z,16.83
2018-12-30T19:35:13.866Z,16.67
2018-12-30T19:37:43.319Z,20.90
2018-12-30T19:40:12.699Z,31.57
2018-12-30T19:42:42.121Z,23.23
2018-12-30T19:45:11.629Z,18.93
2018-12-30T19:47:40.971Z,18.47
2018-12-30T19:50:10.358Z,17.80
2018-12-30T19:52:40.106Z,17.17
2018-12-30T19:55:09.451Z,16.03
2018-12-30T19:57:38.908Z,14.50
2018-12-30T20:00:10.459Z,14.53
2018-12-30T20:02:39.890Z,13.47
2018-12-30T20:05:09.331Z,16.80
2018-12-30T20:07:38.738Z,26.33
2018-12-30T20:10:08.528Z,23.63
2018-12-30T20:12:37.906Z,23.17
2018-12-30T20:15:07.629Z,19.73
2018-12-30T20:17:37.083Z,13.40
2018-12-30T20:20:07.156Z,10.53
2018-12-30T20:22:36.663Z,11.80
2018-12-30T20:25:06.194Z,9.80
2018-12-30T20:27:35.637Z,8.67
2018-12-30T20:30:05.984Z,10.73
2018-12-30T20:32:35.426Z,12.60
2018-12-30T20:35:04.968Z,11.40
2018-12-30T20:37:34.372Z,11.20
2018-12-30T20:40:03.922Z,11.57
2018-12-30T20:42:33.279Z,13.70
2018-12-30T20:45:05.846Z,12.90
2018-12-30T20:47:35.190Z,12.70
2018-12-30T20:50:23.725Z,13.13
2018-12-30T20:52:53.070Z,12.57
2018-12-30T20:55:22.395Z,12.20
2018-12-30T20:57:51.859Z,19.10
2018-12-30T21:00:21.324Z,15.60
2018-12-30T21:02:50.791Z,15.10
2018-12-30T21:05:20.335Z,16.20
2018-12-30T21:07:49.765Z,11.10
2018-12-30T21:10:19.205Z,9.90
2018-12-30T21:12:48.578Z,7.93
2018-12-30T21:15:17.961Z,7.33
2018-12-30T21:17:47.397Z,8.37
2018-12-30T21:20:19.998Z,9.00
2018-12-30T21:22:49.415Z,7.23
2018-12-30T21:25:19.909Z,17.50
2018-12-30T21:27:49.341Z,23.77
2018-12-30T21:30:18.716Z,30.57
2018-12-30T21:32:48.143Z,16.23
2018-12-30T21:35:36.682Z,12.03
2018-12-30T21:38:06.144Z,14.43
2018-12-30T21:40:35.565Z,14.10
2018-12-30T21:43:05.043Z,11.00
2018-12-30T21:45:34.451Z,22.57
2018-12-30T21:48:03.793Z,13.67
2018-12-30T21:50:33.222Z,14.43
2018-12-30T21:53:02.601Z,11.40
2018-12-30T21:55:32.083Z,15.50
2018-12-30T21:58:01.534Z,15.63
2018-12-30T22:00:30.967Z,13.50
2018-12-30T22:03:00.402Z,10.00
2018-12-30T22:05:29.926Z,8.90
2018-12-30T22:07:59.293Z,9.27
2018-12-30T22:10:28.680Z,8.80
2018-12-30T22:12:58.166Z,9.57
2018-12-30T22:15:28.407Z,10.77
2018-12-30T22:17:57.852Z,10.60
2018-12-30T22:20:27.377Z,10.40
2018-12-30T22:22:56.828Z,13.70
2018-12-30T22:25:26.304Z,12.77
2018-12-30T22:27:56.856Z,8.57
2018-12-30T22:30:26.337Z,8.37
2018-12-30T22:32:55.775Z,15.30
2018-12-30T22:35:25.246Z,14.00
2018-12-30T22:37:54.601Z,9.83
2018-12-30T22:40:24.030Z,15.77
2018-12-30T22:42:53.449Z,23.87
2018-12-30T22:45:22.782Z,17.90
2018-12-30T22:47:52.193Z,21.00
2018-12-30T22:50:21.636Z,21.63
2018-12-30T22:52:51.030Z,15.33
2018-12-30T22:55:20.405Z,14.20
2018-12-30T22:57:49.800Z,13.07
2018-12-30T23:00:26.007Z,12.47
2018-12-30T23:02:55.513Z,12.30
2018-12-30T23:05:24.910Z,10.00
2018-12-30T23:07:54.330Z,9.00
2018-12-30T23:10:26.973Z,8.60
2018-12-30T23:12:56.351Z,11.30
2018-12-30T23:15:25.785Z,11.07
2018-12-30T23:17:55.232Z,8.97
2018-12-30T23:20:24.579Z,8.10
2018-12-30T23:22:54.052Z,7.53
2018-12-30T23:25:23.486Z,7.23
2018-12-30T23:27:52.917Z,7.07
2018-12-30T23:30:22.394Z,5.87
2018-12-30T23:32:51.871Z,6.33
2018-12-30T23:35:21.284Z,5.80
2018-12-30T23:37:50.617Z,4.70
2018-12-30T23:40:20.000Z,5.83
2018-12-30T23:42:49.334Z,5.30
2018-12-30T23:45:18.696Z,5.80
2018-12-30T23:47:48.080Z,6.70
2018-12-30T23:50:17.451Z,19.63
2018-12-30T23:52:46.862Z,11.93
2018-12-30T23:55:16.318Z,8.57
2018-12-30T23:57:45.684Z,8.33
